createdAt,value
2018-02-25T00:00:44.796Z,93.10
2018-02-25T00:03:13.149Z,93.10
2018-02-25T00:05:41.578Z,93.00
2018-02-25T00:08:09.929Z,92.90
2018-02-25T00:10:39.038Z,92.80
2018-02-25T00:13:07.393Z,92.80
2018-02-25T00:15:36.496Z,93.00
2018-02-25T00:18:05.607Z,92.90
2018-02-25T00:20:34.069Z,92.80
2018-02-25T00:23:02.392Z,93.00
2018-02-25T00:25:30.746Z,92.90
2018-02-25T00:27:59.083Z,92.70
2018-02-25T00:30:27.432Z,92.90
2018-02-25T00:32:55.781Z,92.60
2018-02-25T00:35:24.170Z,92.70
2018-02-25T00:37:52.510Z,92.60
2018-02-25T00:40:20.946Z,92.50
2018-02-25T00:42:49.320Z,92.20
2018-02-25T00:45:17.681Z,92.30
2018-02-25T00:47:46.021Z,92.30
2018-02-25T00:50:14.440Z,92.30
2018-02-25T00:52:42.792Z,92.20
2018-02-25T00:55:11.900Z,92.10
2018-02-25T00:57:41.093Z,92.10
2018-02-25T01:00:09.432Z,92.10
2018-02-25T01:02:37.776Z,92.20
2018-02-25T01:05:06.125Z,92.20
2018-02-25T01:07:35.250Z,92.40
2018-02-25T01:10:03.597Z,92.30
2018-02-25T01:12:32.712Z,92.30
2018-02-25T01:15:01.119Z,92.30
2018-02-25T01:17:30.175Z,92.60
2018-02-25T01:19:59.315Z,92.60
2018-02-25T01:22:27.671Z,92.60
2018-02-25T01:24:56.000Z,92.70
2018-02-25T01:27:24.344Z,92.70
2018-02-25T01:29:52.721Z,92.90
2018-02-25T01:32:21.199Z,92.90
2018-02-25T01:34:49.557Z,92.90
2018-02-25T01:37:18.643Z,92.80
2018-02-25T01:39:47.759Z,92.90
2018-02-25T01:42:16.124Z,92.90
2018-02-25T01:44:45.238Z,93.10
2018-02-25T01:47:13.731Z,93.00
2018-02-25T01:49:42.092Z,92.80
2018-02-25T01:52:10.448Z,92.80
2018-02-25T01:54:38.877Z,93.00
2018-02-25T01:57:07.215Z,92.80
2018-02-25T01:59:35.554Z,92.80
2018-02-25T02:02:03.970Z,92.70
2018-02-25T02:04:33.072Z,93.10
2018-02-25T02:07:02.191Z,93.00
2018-02-25T02:09:30.643Z,93.00
2018-02-25T02:11:59.011Z,92.90
2018-02-25T02:14:27.380Z,93.00
2018-02-25T02:16:55.825Z,93.10
2018-02-25T02:19:24.157Z,93.10
2018-02-25T02:21:53.253Z,93.70
2018-02-25T02:24:21.616Z,93.20
2018-02-25T02:26:49.958Z,93.50
2018-02-25T02:29:18.279Z,93.30
2018-02-25T02:31:47.420Z,93.60
2018-02-25T02:34:15.749Z,93.50
2018-02-25T02:36:44.098Z,93.40
2018-02-25T02:39:12.444Z,93.60
2018-02-25T02:41:40.824Z,93.60
2018-02-25T02:44:09.169Z,93.60
2018-02-25T02:46:37.605Z,93.70
2018-02-25T02:49:06.083Z,93.60
2018-02-25T02:51:34.461Z,93.60
2018-02-25T02:54:02.812Z,93.70
2018-02-25T02:56:31.186Z,93.90
2018-02-25T02:59:00.286Z,94.20
2018-02-25T03:01:29.376Z,93.80
2018-02-25T03:03:58.518Z,93.80
2018-02-25T03:06:26.859Z,93.80
2018-02-25T03:08:55.204Z,93.90
2018-02-25T03:11:23.549Z,93.90
2018-02-25T03:13:51.925Z,93.90
2018-02-25T03:16:20.602Z,93.90
2018-02-25T03:18:48.992Z,94.00
2018-02-25T03:21:17.337Z,94.10
2018-02-25T03:23:46.448Z,94.10
2018-02-25T03:26:14.792Z,94.00
2018-02-25T03:28:43.153Z,94.10
2018-02-25T03:31:11.494Z,93.80
2018-02-25T03:33:40.190Z,94.20
2018-02-25T03:36:08.516Z,94.30
2018-02-25T03:38:37.617Z,94.30
2018-02-25T03:41:06.740Z,94.30
2018-02-25T03:43:35.198Z,94.30
2018-02-25T03:46:03.600Z,94.30
2018-02-25T03:48:31.949Z,94.40
2018-02-25T03:51:00.326Z,94.50
2018-02-25T03:53:29.177Z,94.50
2018-02-25T03:55:57.521Z,94.70
2018-02-25T03:58:25.895Z,94.70
2018-02-25T04:00:54.990Z,94.80
2018-02-25T04:03:23.343Z,94.70
2018-02-25T04:05:51.664Z,94.70
2018-02-25T04:08:20.047Z,94.80
2018-02-25T04:10:48.380Z,94.80
2018-02-25T04:13:16.722Z,94.90
2018-02-25T04:15:45.071Z,94.90
2018-02-25T04:18:13.559Z,94.90
2018-02-25T04:20:41.883Z,94.90
2018-02-25T04:23:10.228Z,94.80
2018-02-25T04:25:38.600Z,94.80
2018-02-25T04:28:06.974Z,94.80
2018-02-25T04:30:35.370Z,94.70
2018-02-25T04:33:03.737Z,94.80
2018-02-25T04:35:32.203Z,94.80
2018-02-25T04:38:01.420Z,94.80
2018-02-25T04:40:29.782Z,94.80
2018-02-25T04:42:58.144Z,94.90
2018-02-25T04:45:27.263Z,94.90
2018-02-25T04:47:55.611Z,95.30
2018-02-25T04:50:24.798Z,94.80
2018-02-25T04:52:53.123Z,94.80
2018-02-25T04:55:21.514Z,94.90
2018-02-25T04:57:49.848Z,95.00
2018-02-25T05:00:18.993Z,95.40
2018-02-25T05:02:47.960Z,95.00
2018-02-25T05:05:16.304Z,95.10
2018-02-25T05:07:44.731Z,95.00
2018-02-25T05:10:13.096Z,95.20
2018-02-25T05:12:42.211Z,95.20
2018-02-25T05:15:10.740Z,95.20
2018-02-25T05:17:39.099Z,95.30
2018-02-25T05:20:07.546Z,95.40
2018-02-25T05:22:35.932Z,95.50
2018-02-25T05:25:04.288Z,95.60
2018-02-25T05:27:32.615Z,95.70
2018-02-25T05:30:00.988Z,95.70
2018-02-25T05:32:29.329Z,95.70
2018-02-25T05:34:57.717Z,95.70
2018-02-25T05:37:26.294Z,95.80
2018-02-25T05:39:54.632Z,95.90
2018-02-25T05:42:23.018Z,96.00
2018-02-25T05:44:51.362Z,96.00
2018-02-25T05:47:19.762Z,96.10
2018-02-25T05:49:48.114Z,96.10
2018-02-25T05:52:16.519Z,96.40
2018-02-25T05:54:44.906Z,95.90
2018-02-25T05:57:13.242Z,96.30
2018-02-25T05:59:41.598Z,96.10
2018-02-25T06:02:10.717Z,96.10
2018-02-25T06:04:39.083Z,96.00
2018-02-25T06:07:07.436Z,95.90
2018-02-25T06:09:35.829Z,96.10
2018-02-25T06:12:04.963Z,96.10
2018-02-25T06:14:33.308Z,96.10
2018-02-25T06:17:01.720Z,96.20
2018-02-25T06:19:30.114Z,95.90
2018-02-25T06:21:58.465Z,96.30
2018-02-25T06:24:26.867Z,96.20
2018-02-25T06:26:55.255Z,96.30
2018-02-25T06:29:23.614Z,96.40
2018-02-25T06:31:51.950Z,96.10
2018-02-25T06:34:20.277Z,96.30
2018-02-25T06:36:48.628Z,96.30
2018-02-25T06:39:16.972Z,96.20
2018-02-25T06:41:45.317Z,96.10
2018-02-25T06:44:13.784Z,96.20
2018-02-25T06:46:42.264Z,96.10
2018-02-25T06:49:10.618Z,96.00
2018-02-25T06:51:38.963Z,96.10
2018-02-25T06:54:07.447Z,95.90
2018-02-25T06:56:35.782Z,95.80
2018-02-25T06:59:04.156Z,95.60
2018-02-25T07:01:32.537Z,95.70
2018-02-25T07:04:00.918Z,95.50
2018-02-25T07:06:29.287Z,95.40
2018-02-25T07:08:57.629Z,95.30
2018-02-25T07:11:27.386Z,95.00
2018-02-25T07:13:55.895Z,95.00
2018-02-25T07:16:24.276Z,95.10
2018-02-25T07:18:52.684Z,94.80
2018-02-25T07:21:21.033Z,94.70
2018-02-25T07:23:49.508Z,94.40
2018-02-25T07:26:17.856Z,94.10
2018-02-25T07:28:46.199Z,94.10
2018-02-25T07:31:14.552Z,94.00
2018-02-25T07:33:42.938Z,93.80
2018-02-25T07:36:11.297Z,93.60
2018-02-25T07:38:39.641Z,93.60
2018-02-25T07:41:07.990Z,93.70
2018-02-25T07:43:36.348Z,93.60
2018-02-25T07:46:04.743Z,93.50
2018-02-25T07:48:33.145Z,93.40
2018-02-25T07:51:01.478Z,93.00
2018-02-25T07:53:29.836Z,92.80
2018-02-25T07:55:58.230Z,92.60
2018-02-25T07:58:26.581Z,92.20
2018-02-25T08:00:54.973Z,91.40
2018-02-25T08:03:23.345Z,91.50
2018-02-25T08:05:51.737Z,91.20
2018-02-25T08:08:20.116Z,91.00
2018-02-25T08:10:48.486Z,90.80
2018-02-25T08:13:16.874Z,90.60
2018-02-25T08:15:45.231Z,90.00
2018-02-25T08:18:13.591Z,89.40
2018-02-25T08:20:41.957Z,88.10
2018-02-25T08:23:10.320Z,86.70
2018-02-25T08:25:38.685Z,86.60
2018-02-25T08:28:07.007Z,86.40
2018-02-25T08:30:36.194Z,80.90
2018-02-25T08:33:04.696Z,80.80
2018-02-25T08:35:33.047Z,80.80
2018-02-25T08:38:01.414Z,80.40
2018-02-25T08:43:04.602Z,78.00
2018-02-25T08:45:33.038Z,76.70
2018-02-25T08:48:01.610Z,75.00
2018-02-25T08:50:29.935Z,75.30
2018-02-25T08:52:58.274Z,75.20
2018-02-25T08:55:27.471Z,76.90
2018-02-25T08:57:56.619Z,74.80
2018-02-25T09:00:25.918Z,72.60
2018-02-25T09:02:54.257Z,72.60
2018-02-25T09:05:22.610Z,72.60
2018-02-25T09:07:51.056Z,71.50
2018-02-25T09:10:19.421Z,71.50
2018-02-25T09:12:47.769Z,71.50
2018-02-25T09:15:16.889Z,70.70
2018-02-25T09:17:46.072Z,71.50
2018-02-25T09:20:15.218Z,71.20
2018-02-25T09:22:43.552Z,71.10
2018-02-25T09:25:12.658Z,72.10
2018-02-25T09:27:41.050Z,72.10
2018-02-25T09:30:09.516Z,73.40
2018-02-25T09:32:38.618Z,74.10
2018-02-25T09:35:07.000Z,73.70
2018-02-25T09:37:35.390Z,73.80
2018-02-25T09:40:03.907Z,74.00
2018-02-25T09:42:32.511Z,73.10
2018-02-25T09:45:00.931Z,72.30
2018-02-25T09:47:29.305Z,73.30
2018-02-25T09:49:57.718Z,74.70
2018-02-25T09:52:26.170Z,74.80
2018-02-25T09:54:54.506Z,75.40
2018-02-25T09:57:22.852Z,75.20
2018-02-25T09:59:51.336Z,74.00
2018-02-25T10:02:19.699Z,73.80
2018-02-25T10:04:48.072Z,74.80
2018-02-25T10:07:16.871Z,74.60
2018-02-25T10:09:45.212Z,73.90
2018-02-25T10:12:14.369Z,71.80
2018-02-25T10:14:42.836Z,71.80
2018-02-25T10:17:11.214Z,71.20
2018-02-25T10:19:39.587Z,71.70
2018-02-25T10:22:07.962Z,70.50
2018-02-25T10:24:36.329Z,69.40
2018-02-25T10:27:04.656Z,68.90
2018-02-25T10:29:33.069Z,68.80
2018-02-25T10:32:02.208Z,69.90
2018-02-25T10:34:30.541Z,70.00
2018-02-25T10:36:59.704Z,70.20
2018-02-25T10:39:28.050Z,70.20
2018-02-25T10:41:56.448Z,68.40
2018-02-25T10:44:24.868Z,68.40
2018-02-25T10:46:53.211Z,69.80
2018-02-25T10:49:21.573Z,68.00
2018-02-25T10:51:49.910Z,67.80
2018-02-25T10:54:19.042Z,67.50
2018-02-25T10:56:47.395Z,67.40
2018-02-25T10:59:16.544Z,64.00
2018-02-25T11:01:44.889Z,64.00
2018-02-25T11:04:13.304Z,63.30
2018-02-25T11:06:41.734Z,61.50
2018-02-25T11:09:10.135Z,61.10
2018-02-25T11:11:38.599Z,60.60
2018-02-25T11:14:06.933Z,59.90
2018-02-25T11:16:35.291Z,59.90
2018-02-25T11:19:03.687Z,61.00
2018-02-25T11:21:32.030Z,59.80
2018-02-25T11:24:00.390Z,59.10
2018-02-25T11:26:29.482Z,55.40
2018-02-25T11:28:58.588Z,55.10
2018-02-25T11:31:27.011Z,55.20
2018-02-25T11:33:56.078Z,54.00
2018-02-25T11:36:24.475Z,54.00
2018-02-25T11:38:52.803Z,51.10
2018-02-25T11:41:21.148Z,51.90
2018-02-25T11:43:49.481Z,61.00
2018-02-25T11:46:17.982Z,53.00
2018-02-25T11:48:46.321Z,48.00
2018-02-25T11:51:15.412Z,45.10
2018-02-25T11:53:44.652Z,43.50
2018-02-25T11:56:12.990Z,43.50
2018-02-25T11:58:42.127Z,42.50
2018-02-25T12:01:10.545Z,42.50
2018-02-25T12:03:38.859Z,40.10
2018-02-25T12:06:07.963Z,37.80
2018-02-25T12:08:36.316Z,37.70
2018-02-25T12:11:04.659Z,40.30
2018-02-25T12:13:33.084Z,40.90
2018-02-25T12:16:02.216Z,37.20
2018-02-25T12:18:30.742Z,37.20
2018-02-25T12:20:59.098Z,37.10
2018-02-25T12:23:27.531Z,38.10
2018-02-25T12:25:55.928Z,37.50
2018-02-25T12:28:24.556Z,36.60
2018-02-25T12:30:52.896Z,37.60
2018-02-25T12:33:21.287Z,38.50
2018-02-25T12:35:49.611Z,35.90
2018-02-25T12:38:17.969Z,36.90
2018-02-25T12:40:46.499Z,38.30
2018-02-25T12:43:15.506Z,37.60
2018-02-25T12:45:44.013Z,37.20
2018-02-25T12:48:12.342Z,38.50
2018-02-25T12:50:41.471Z,41.10
2018-02-25T12:53:10.188Z,41.10
2018-02-25T12:55:38.899Z,43.50
2018-02-25T12:58:07.995Z,44.70
2018-02-25T13:00:36.309Z,47.40
2018-02-25T13:03:04.660Z,48.40
2018-02-25T13:05:33.767Z,50.50
2018-02-25T13:08:02.238Z,50.40
2018-02-25T13:10:30.810Z,53.10
2018-02-25T13:12:59.299Z,53.10
2018-02-25T13:15:28.479Z,53.10
2018-02-25T13:17:57.782Z,53.10
2018-02-25T13:20:27.143Z,53.00
2018-02-25T13:22:55.791Z,52.70
2018-02-25T13:25:24.379Z,51.60
2018-02-25T13:27:53.984Z,51.40
2018-02-25T13:30:23.151Z,51.50
2018-02-25T13:32:52.020Z,51.30
2018-02-25T13:35:22.330Z,51.40
2018-02-25T13:37:50.984Z,50.90
2018-02-25T13:40:20.272Z,50.20
2018-02-25T13:42:48.780Z,50.30
2018-02-25T13:45:17.253Z,48.60
2018-02-25T13:47:46.493Z,44.50
2018-02-25T13:50:15.016Z,44.50
2018-02-25T13:52:44.265Z,43.90
2018-02-25T13:55:12.756Z,43.40
2018-02-25T13:57:41.477Z,43.60
2018-02-25T14:00:10.301Z,44.00
2018-02-25T14:02:40.357Z,45.10
2018-02-25T14:05:08.868Z,45.70
2018-02-25T14:07:37.460Z,46.60
2018-02-25T14:10:06.281Z,48.10
2018-02-25T14:12:34.736Z,50.00
2018-02-25T14:15:03.137Z,51.60
2018-02-25T14:17:31.821Z,53.30
2018-02-25T14:20:04.928Z,55.90
2018-02-25T14:22:33.555Z,55.80
2018-02-25T14:25:02.155Z,56.80
2018-02-25T14:27:30.719Z,56.30
2018-02-25T14:29:59.276Z,56.30
2018-02-25T14:32:27.898Z,55.90
2018-02-25T14:34:56.414Z,56.20
2018-02-25T14:37:25.060Z,56.20
2018-02-25T14:39:53.534Z,57.10
2018-02-25T14:42:22.002Z,58.50
2018-02-25T14:44:50.601Z,59.70
2018-02-25T14:47:19.226Z,61.40
2018-02-25T14:49:47.863Z,62.60
2018-02-25T14:52:16.362Z,61.70
2018-02-25T14:54:45.141Z,62.00
2018-02-25T14:57:13.682Z,63.10
2018-02-25T14:59:42.198Z,63.40
2018-02-25T15:02:10.891Z,64.20
2018-02-25T15:04:39.371Z,65.00
2018-02-25T15:07:07.871Z,65.40
2018-02-25T15:09:37.080Z,66.80
2018-02-25T15:12:05.516Z,66.80
2018-02-25T15:14:34.745Z,67.30
2018-02-25T15:17:03.923Z,67.80
2018-02-25T15:19:32.441Z,67.80
2018-02-25T15:22:01.697Z,70.00
2018-02-25T15:24:30.155Z,70.00
2018-02-25T15:26:58.655Z,71.10
2018-02-25T15:29:27.115Z,72.10
2018-02-25T15:31:55.493Z,72.90
2018-02-25T15:34:23.952Z,73.70
2018-02-25T15:36:53.447Z,77.10
2018-02-25T15:39:22.595Z,77.30
2018-02-25T15:41:51.069Z,77.30
2018-02-25T15:44:19.484Z,76.80
2018-02-25T15:46:47.878Z,77.20
2018-02-25T15:49:16.288Z,77.80
2018-02-25T15:51:44.772Z,78.50
2018-02-25T15:54:14.106Z,80.70
2018-02-25T15:56:42.487Z,80.60
2018-02-25T15:59:10.896Z,81.30
2018-02-25T16:01:39.404Z,82.10
2018-02-25T16:04:07.733Z,83.10
2018-02-25T16:06:36.100Z,84.30
2018-02-25T16:09:04.465Z,85.30
2018-02-25T16:11:33.701Z,86.80
2018-02-25T16:14:02.248Z,87.80
2018-02-25T16:16:30.594Z,88.50
2018-02-25T16:18:58.937Z,88.60
2018-02-25T16:21:27.311Z,88.70
2018-02-25T16:23:55.649Z,89.30
2018-02-25T16:26:24.058Z,90.00
2018-02-25T16:28:52.667Z,90.30
2018-02-25T16:31:20.989Z,90.60
2018-02-25T16:33:49.335Z,90.80
2018-02-25T16:36:17.687Z,91.10
2018-02-25T16:38:46.518Z,91.30
2018-02-25T16:41:14.889Z,91.60
2018-02-25T16:43:43.235Z,92.00
2018-02-25T16:46:11.702Z,92.20
2018-02-25T16:48:40.047Z,92.50
2018-02-25T16:51:09.182Z,93.20
2018-02-25T16:53:37.539Z,93.10
2018-02-25T16:56:05.906Z,93.60
2018-02-25T16:58:35.028Z,94.30
2018-02-25T17:01:03.383Z,94.30
2018-02-25T17:03:32.524Z,94.90
2018-02-25T17:06:00.866Z,94.90
2018-02-25T17:08:29.208Z,95.10
2018-02-25T17:10:57.678Z,95.20
2018-02-25T17:13:26.029Z,95.40
2018-02-25T17:15:54.391Z,95.50
2018-02-25T17:18:22.787Z,95.60
2018-02-25T17:20:51.163Z,95.70
2018-02-25T17:23:19.570Z,95.80
2018-02-25T17:25:48.150Z,95.90
2018-02-25T17:28:17.209Z,96.20
2018-02-25T17:30:45.654Z,96.20
2018-02-25T17:33:13.997Z,96.30
2018-02-25T17:35:42.463Z,96.50
2018-02-25T17:38:10.826Z,96.60
2018-02-25T17:40:39.448Z,96.70
2018-02-25T17:43:08.133Z,96.70
2018-02-25T17:45:36.586Z,96.90
2018-02-25T17:48:05.013Z,97.00
2018-02-25T17:50:34.355Z,97.20
2018-02-25T17:53:02.863Z,97.30
2018-02-25T17:55:33.564Z,97.50
2018-02-25T17:58:06.641Z,97.80
2018-02-25T18:00:28.986Z,97.60
2018-02-25T18:02:57.439Z,97.70
2018-02-25T18:05:26.068Z,97.80
2018-02-25T18:07:54.572Z,97.90
2018-02-25T18:10:23.063Z,98.00
2018-02-25T18:12:51.561Z,98.20
2018-02-25T18:15:19.941Z,98.30
2018-02-25T18:17:48.340Z,98.40
2018-02-25T18:20:16.688Z,98.40
2018-02-25T18:22:45.037Z,98.30
2018-02-25T18:25:13.427Z,98.30
2018-02-25T18:27:41.810Z,98.30
2018-02-25T18:30:10.390Z,98.30
2018-02-25T18:32:38.725Z,98.60
2018-02-25T18:35:07.114Z,98.30
2018-02-25T18:37:36.225Z,98.10
2018-02-25T18:40:04.624Z,98.10
2018-02-25T18:42:32.986Z,98.00
2018-02-25T18:45:02.088Z,97.90
2018-02-25T18:47:30.436Z,97.90
2018-02-25T18:49:59.579Z,97.90
2018-02-25T18:52:28.269Z,97.90
2018-02-25T18:54:56.640Z,97.90
2018-02-25T18:57:24.982Z,97.90
2018-02-25T18:59:54.133Z,98.00
2018-02-25T19:02:22.466Z,98.00
2018-02-25T19:04:51.622Z,98.00
2018-02-25T19:07:20.689Z,98.00
2018-02-25T19:09:49.145Z,98.10
2018-02-25T19:12:17.476Z,98.10
2018-02-25T19:14:45.930Z,98.10
2018-02-25T19:17:14.297Z,98.00
2018-02-25T19:19:42.691Z,98.00
2018-02-25T19:22:11.041Z,97.90
2018-02-25T19:24:39.380Z,97.90
2018-02-25T19:27:07.833Z,97.90
2018-02-25T19:29:36.247Z,97.90
2018-02-25T19:32:04.584Z,98.00
2018-02-25T19:34:32.934Z,97.90
2018-02-25T19:37:07.853Z,98.70
2018-02-25T19:39:42.615Z,98.80
2018-02-25T19:42:11.727Z,98.40
2018-02-25T19:44:40.162Z,98.30
2018-02-25T19:47:09.307Z,98.30
2018-02-25T19:49:37.646Z,98.20
2018-02-25T19:52:06.777Z,97.90
2018-02-25T19:54:35.125Z,97.90
2018-02-25T19:57:03.484Z,97.90
2018-02-25T19:59:32.610Z,98.30
2018-02-25T20:02:00.961Z,97.90
2018-02-25T20:04:30.153Z,97.60
2018-02-25T20:06:58.611Z,97.50
2018-02-25T20:09:27.184Z,97.70
2018-02-25T20:11:55.806Z,97.70
2018-02-25T20:14:24.720Z,97.60
2018-02-25T20:16:53.153Z,97.60
2018-02-25T20:19:21.522Z,97.60
2018-02-25T20:21:49.859Z,97.60
2018-02-25T20:24:18.224Z,97.70
2018-02-25T20:26:46.651Z,97.90
2018-02-25T20:29:15.053Z,98.10
2018-02-25T20:31:43.407Z,98.30
2018-02-25T20:34:11.757Z,98.50
2018-02-25T20:36:40.099Z,98.50
2018-02-25T20:39:08.439Z,98.90
2018-02-25T20:41:36.801Z,99.00
2018-02-25T20:44:05.145Z,99.10
2018-02-25T20:46:33.483Z,99.30
2018-02-25T20:49:02.780Z,99.40
2018-02-25T20:51:31.106Z,99.30
2018-02-25T20:53:59.462Z,99.30
2018-02-25T20:56:28.022Z,99.50
2018-02-25T20:58:56.373Z,99.50
2018-02-25T21:01:25.700Z,99.20
2018-02-25T21:03:54.033Z,99.20
2018-02-25T21:06:23.228Z,99.80
2018-02-25T21:08:51.577Z,99.70
2018-02-25T21:11:19.956Z,99.60
2018-02-25T21:13:48.455Z,99.30
2018-02-25T21:16:16.818Z,99.30
2018-02-25T21:18:45.156Z,99.90
2018-02-25T21:21:13.551Z,99.90
2018-02-25T21:23:41.967Z,99.90
2018-02-25T21:26:10.309Z,99.80
2018-02-25T21:28:38.731Z,99.90
2018-02-25T21:31:07.136Z,99.80
2018-02-25T21:33:36.276Z,99.90
2018-02-25T21:36:04.620Z,99.90
2018-02-25T21:38:32.985Z,99.80
2018-02-25T21:41:02.127Z,99.90
2018-02-25T21:43:30.452Z,99.90
2018-02-25T21:45:59.606Z,99.80
2018-02-25T21:48:27.979Z,99.80
2018-02-25T21:50:56.349Z,99.80
2018-02-25T21:53:24.688Z,99.80
2018-02-25T21:55:58.901Z,99.70
2018-02-25T21:58:33.653Z,99.90
2018-02-25T22:01:08.364Z,99.80
2018-02-25T22:03:37.460Z,99.80
2018-02-25T22:06:05.811Z,99.80
2018-02-25T22:08:34.223Z,99.80
2018-02-25T22:11:03.323Z,99.70
2018-02-25T22:13:32.559Z,99.70
2018-02-25T22:16:00.870Z,99.60
2018-02-25T22:18:29.318Z,99.70
2018-02-25T22:20:57.662Z,99.70
2018-02-25T22:23:26.801Z,99.80
2018-02-25T22:25:55.150Z,99.80
2018-02-25T22:28:23.496Z,99.70
2018-02-25T22:30:52.656Z,99.80
2018-02-25T22:33:21.001Z,99.80
2018-02-25T22:35:49.407Z,99.80
2018-02-25T22:38:17.748Z,99.80
2018-02-25T22:40:46.888Z,99.90
2018-02-25T22:43:15.249Z,99.90
2018-02-25T22:45:43.608Z,99.90
2018-02-25T22:48:12.716Z,99.90
2018-02-25T22:50:41.109Z,99.90
2018-02-25T22:53:09.445Z,99.90
2018-02-25T22:55:38.558Z,99.90
2018-02-25T22:58:07.683Z,99.90
2018-02-25T23:00:36.196Z,99.90
2018-02-25T23:03:04.532Z,99.90
2018-02-25T23:05:32.893Z,99.90
2018-02-25T23:08:02.018Z,99.90
2018-02-25T23:10:30.409Z,99.90
2018-02-25T23:12:58.772Z,99.90
2018-02-25T23:15:27.152Z,99.90
2018-02-25T23:17:55.535Z,99.90
2018-02-25T23:20:23.880Z,99.90
2018-02-25T23:22:53.006Z,99.90
2018-02-25T23:25:21.348Z,99.90
2018-02-25T23:27:50.457Z,99.90
2018-02-25T23:30:19.577Z,99.90
2018-02-25T23:32:47.924Z,99.90
2018-02-25T23:35:16.288Z,99.90
2018-02-25T23:37:44.636Z,99.90
2018-02-25T23:40:12.990Z,99.90
2018-02-25T23:42:41.344Z,99.90
2018-02-25T23:45:10.492Z,99.90
2018-02-25T23:47:38.809Z,99.90
2018-02-25T23:50:07.932Z,99.90
2018-02-25T23:52:36.323Z,99.90
2018-02-25T23:55:05.402Z,99.90
2018-02-25T23:57:33.905Z,99.90
